sensor_id;sensor_type;location;lat;lon;timestamp;temperature;humidity
67379;DHT22;54262;44.642;-0.974;2024-01-11T00:01:23;8.20;99.90
67379;DHT22;54262;44.642;-0.974;2024-01-11T00:03:51;8.00;99.90
67379;DHT22;54262;44.642;-0.974;2024-01-11T00:06:16;7.70;99.90
67379;DHT22;54262;44.642;-0.974;2024-01-11T00:08:42;7.50;99.90
67379;DHT22;54262;44.642;-0.974;2024-01-11T00:11:10;7.50;99.90
67379;DHT22;54262;44.642;-0.974;2024-01-11T00:13:35;7.50;99.90
67379;DHT22;54262;44.642;-0.974;2024-01-11T00:16:01;7.50;99.90
67379;DHT22;54262;44.642;-0.974;2024-01-11T00:18:27;7.30;99.90
67379;DHT22;54262;44.642;-0.974;2024-01-11T00:20:52;8.00;99.90
67379;DHT22;54262;44.642;-0.974;2024-01-11T00:23:18;8.40;99.90
67379;DHT22;54262;44.642;-0.974;2024-01-11T00:25:43;8.30;99.90
67379;DHT22;54262;44.642;-0.974;2024-01-11T00:28:09;8.20;99.90
67379;DHT22;54262;44.642;-0.974;2024-01-11T00:30:34;8.00;99.90
67379;DHT22;54262;44.642;-0.974;2024-01-11T00:33:00;7.70;99.90
67379;DHT22;54262;44.642;-0.974;2024-01-11T00:35:25;7.60;99.90
67379;DHT22;54262;44.642;-0.974;2024-01-11T00:37:51;7.80;99.90
67379;DHT22;54262;44.642;-0.974;2024-01-11T00:40:16;7.90;99.90
67379;DHT22;54262;44.642;-0.974;2024-01-11T00:42:42;8.00;99.90
67379;DHT22;54262;44.642;-0.974;2024-01-11T00:45:08;8.10;99.90
67379;DHT22;54262;44.642;-0.974;2024-01-11T00:47:33;8.00;99.90
67379;DHT22;54262;44.642;-0.974;2024-01-11T00:49:59;8.20;99.90
67379;DHT22;54262;44.642;-0.974;2024-01-11T00:52:24;8.10;99.90
67379;DHT22;54262;44.642;-0.974;2024-01-11T00:54:50;7.90;99.90
67379;DHT22;54262;44.642;-0.974;2024-01-11T00:57:15;7.60;99.90
67379;DHT22;54262;44.642;-0.974;2024-01-11T00:59:41;7.50;99.90
67379;DHT22;54262;44.642;-0.974;2024-01-11T01:02:06;7.50;99.90
67379;DHT22;54262;44.642;-0.974;2024-01-11T01:04:34;7.70;99.90
67379;DHT22;54262;44.642;-0.974;2024-01-11T01:07:02;7.60;99.90
67379;DHT22;54262;44.642;-0.974;2024-01-11T01:09:28;7.50;99.90
67379;DHT22;54262;44.642;-0.974;2024-01-11T01:11:56;7.90;99.90
67379;DHT22;54262;44.642;-0.974;2024-01-11T01:14:21;7.80;99.90
67379;DHT22;54262;44.642;-0.974;2024-01-11T01:16:47;7.60;99.90
67379;DHT22;54262;44.642;-0.974;2024-01-11T01:19:12;7.50;99.90
67379;DHT22;54262;44.642;-0.974;2024-01-11T01:21:38;7.50;99.90
67379;DHT22;54262;44.642;-0.974;2024-01-11T01:24:03;7.40;99.90
67379;DHT22;54262;44.642;-0.974;2024-01-11T01:26:29;7.40;99.90
67379;DHT22;54262;44.642;-0.974;2024-01-11T01:28:54;7.80;99.90
67379;DHT22;54262;44.642;-0.974;2024-01-11T01:31:21;8.20;99.90
67379;DHT22;54262;44.642;-0.974;2024-01-11T01:33:46;8.00;99.90
67379;DHT22;54262;44.642;-0.974;2024-01-11T01:36:12;8.00;99.90
67379;DHT22;54262;44.642;-0.974;2024-01-11T01:38:37;8.00;99.90
67379;DHT22;54262;44.642;-0.974;2024-01-11T01:41:03;8.20;99.90
67379;DHT22;54262;44.642;-0.974;2024-01-11T01:43:28;8.20;99.90
67379;DHT22;54262;44.642;-0.974;2024-01-11T01:45:54;8.20;99.90
67379;DHT22;54262;44.642;-0.974;2024-01-11T01:48:19;8.30;99.90
67379;DHT22;54262;44.642;-0.974;2024-01-11T01:50:46;8.30;99.90
67379;DHT22;54262;44.642;-0.974;2024-01-11T01:53:19;8.20;99.90
67379;DHT22;54262;44.642;-0.974;2024-01-11T01:55:45;8.30;99.90
67379;DHT22;54262;44.642;-0.974;2024-01-11T01:58:11;8.10;99.90
67379;DHT22;54262;44.642;-0.974;2024-01-11T02:00:37;7.80;99.90
67379;DHT22;54262;44.642;-0.974;2024-01-11T02:03:03;7.60;99.90
67379;DHT22;54262;44.642;-0.974;2024-01-11T02:05:31;7.50;99.90
67379;DHT22;54262;44.642;-0.974;2024-01-11T02:07:57;7.60;99.90
67379;DHT22;54262;44.642;-0.974;2024-01-11T02:10:24;7.50;99.90
67379;DHT22;54262;44.642;-0.974;2024-01-11T02:12:53;7.60;99.90
67379;DHT22;54262;44.642;-0.974;2024-01-11T02:15:18;7.50;99.90
67379;DHT22;54262;44.642;-0.974;2024-01-11T02:17:44;7.50;99.90
67379;DHT22;54262;44.642;-0.974;2024-01-11T02:20:12;7.60;99.90
67379;DHT22;54262;44.642;-0.974;2024-01-11T02:22:42;7.60;99.90
67379;DHT22;54262;44.642;-0.974;2024-01-11T02:25:10;7.60;99.90
67379;DHT22;54262;44.642;-0.974;2024-01-11T02:27:45;7.60;99.90
67379;DHT22;54262;44.642;-0.974;2024-01-11T02:30:11;7.50;99.90
67379;DHT22;54262;44.642;-0.974;2024-01-11T02:32:37;7.50;99.90
67379;DHT22;54262;44.642;-0.974;2024-01-11T02:35:03;7.40;99.90
67379;DHT22;54262;44.642;-0.974;2024-01-11T02:37:29;7.40;99.90
67379;DHT22;54262;44.642;-0.974;2024-01-11T02:39:55;7.40;99.90
67379;DHT22;54262;44.642;-0.974;2024-01-11T02:42:20;7.50;99.90
67379;DHT22;54262;44.642;-0.974;2024-01-11T02:44:46;7.40;99.90
67379;DHT22;54262;44.642;-0.974;2024-01-11T02:47:12;7.50;99.90
67379;DHT22;54262;44.642;-0.974;2024-01-11T02:49:37;7.60;99.90
67379;DHT22;54262;44.642;-0.974;2024-01-11T02:52:03;7.60;99.90
67379;DHT22;54262;44.642;-0.974;2024-01-11T02:54:29;7.60;99.90
67379;DHT22;54262;44.642;-0.974;2024-01-11T02:56:54;7.60;99.90
67379;DHT22;54262;44.642;-0.974;2024-01-11T02:59:22;7.60;99.90
67379;DHT22;54262;44.642;-0.974;2024-01-11T03:01:49;7.50;99.90
67379;DHT22;54262;44.642;-0.974;2024-01-11T03:04:15;7.60;99.90
67379;DHT22;54262;44.642;-0.974;2024-01-11T03:06:43;7.60;99.90
67379;DHT22;54262;44.642;-0.974;2024-01-11T03:09:08;7.60;99.90
67379;DHT22;54262;44.642;-0.974;2024-01-11T03:11:34;7.60;99.90
67379;DHT22;54262;44.642;-0.974;2024-01-11T03:14:07;7.60;99.90
67379;DHT22;54262;44.642;-0.974;2024-01-11T03:16:32;7.60;99.90
67379;DHT22;54262;44.642;-0.974;2024-01-11T03:18:58;7.50;99.90
67379;DHT22;54262;44.642;-0.974;2024-01-11T03:21:23;7.40;99.90
67379;DHT22;54262;44.642;-0.974;2024-01-11T03:23:49;7.50;99.90
67379;DHT22;54262;44.642;-0.974;2024-01-11T03:26:17;7.50;99.90
67379;DHT22;54262;44.642;-0.974;2024-01-11T03:28:43;7.50;99.90
67379;DHT22;54262;44.642;-0.974;2024-01-11T03:31:09;7.70;99.90
67379;DHT22;54262;44.642;-0.974;2024-01-11T03:33:35;7.60;99.90
67379;DHT22;54262;44.642;-0.974;2024-01-11T03:36:11;7.60;99.90
67379;DHT22;54262;44.642;-0.974;2024-01-11T03:38:37;7.50;99.90
67379;DHT22;54262;44.642;-0.974;2024-01-11T03:41:07;7.50;99.90
67379;DHT22;54262;44.642;-0.974;2024-01-11T03:43:32;7.60;99.90
67379;DHT22;54262;44.642;-0.974;2024-01-11T03:45:58;7.50;99.90
67379;DHT22;54262;44.642;-0.974;2024-01-11T03:48:23;7.50;99.90
67379;DHT22;54262;44.642;-0.974;2024-01-11T03:50:49;7.50;99.90
67379;DHT22;54262;44.642;-0.974;2024-01-11T03:53:14;7.60;99.90
67379;DHT22;54262;44.642;-0.974;2024-01-11T03:55:40;7.60;99.90
67379;DHT22;54262;44.642;-0.974;2024-01-11T03:58:08;7.60;99.90
67379;DHT22;54262;44.642;-0.974;2024-01-11T04:00:34;7.50;99.90
67379;DHT22;54262;44.642;-0.974;2024-01-11T04:02:59;7.60;99.90
67379;DHT22;54262;44.642;-0.974;2024-01-11T04:05:27;7.70;99.90
67379;DHT22;54262;44.642;-0.974;2024-01-11T04:07:54;7.60;99.90
67379;DHT22;54262;44.642;-0.974;2024-01-11T04:10:20;7.60;99.90
67379;DHT22;54262;44.642;-0.974;2024-01-11T04:12:45;7.70;99.90
67379;DHT22;54262;44.642;-0.974;2024-01-11T04:15:13;7.70;99.90
67379;DHT22;54262;44.642;-0.974;2024-01-11T04:17:39;7.70;99.90
67379;DHT22;54262;44.642;-0.974;2024-01-11T04:20:05;7.70;99.90
67379;DHT22;54262;44.642;-0.974;2024-01-11T04:22:31;7.70;99.90
67379;DHT22;54262;44.642;-0.974;2024-01-11T04:24:56;7.70;99.90
67379;DHT22;54262;44.642;-0.974;2024-01-11T04:27:24;7.60;99.90
67379;DHT22;54262;44.642;-0.974;2024-01-11T04:29:49;7.60;99.90
67379;DHT22;54262;44.642;-0.974;2024-01-11T04:32:15;7.60;99.90
67379;DHT22;54262;44.642;-0.974;2024-01-11T04:34:40;7.50;99.90
67379;DHT22;54262;44.642;-0.974;2024-01-11T04:37:06;7.60;99.90
67379;DHT22;54262;44.642;-0.974;2024-01-11T04:39:32;7.50;99.90
67379;DHT22;54262;44.642;-0.974;2024-01-11T04:41:57;7.50;99.90
67379;DHT22;54262;44.642;-0.974;2024-01-11T04:44:23;7.50;99.90
67379;DHT22;54262;44.642;-0.974;2024-01-11T04:46:48;7.50;99.90
67379;DHT22;54262;44.642;-0.974;2024-01-11T04:49:14;7.60;99.90
67379;DHT22;54262;44.642;-0.974;2024-01-11T04:51:39;7.60;99.90
67379;DHT22;54262;44.642;-0.974;2024-01-11T04:54:05;7.60;99.90
67379;DHT22;54262;44.642;-0.974;2024-01-11T04:56:33;7.50;99.90
67379;DHT22;54262;44.642;-0.974;2024-01-11T04:58:59;7.60;99.90
67379;DHT22;54262;44.642;-0.974;2024-01-11T05:01:24;7.70;99.90
67379;DHT22;54262;44.642;-0.974;2024-01-11T05:03:50;7.50;99.90
67379;DHT22;54262;44.642;-0.974;2024-01-11T05:06:19;7.40;99.90
67379;DHT22;54262;44.642;-0.974;2024-01-11T05:08:51;7.40;99.90
67379;DHT22;54262;44.642;-0.974;2024-01-11T05:11:20;7.50;99.90
67379;DHT22;54262;44.642;-0.974;2024-01-11T05:13:47;7.50;99.90
67379;DHT22;54262;44.642;-0.974;2024-01-11T05:18:43;7.50;99.90
67379;DHT22;54262;44.642;-0.974;2024-01-11T05:21:08;7.50;99.90
67379;DHT22;54262;44.642;-0.974;2024-01-11T05:23:34;7.60;99.90
67379;DHT22;54262;44.642;-0.974;2024-01-11T05:25:59;7.60;99.90
67379;DHT22;54262;44.642;-0.974;2024-01-11T05:28:25;7.80;99.90
67379;DHT22;54262;44.642;-0.974;2024-01-11T05:30:50;7.70;99.90
67379;DHT22;54262;44.642;-0.974;2024-01-11T05:33:16;7.60;99.90
67379;DHT22;54262;44.642;-0.974;2024-01-11T05:35:42;7.60;99.90
67379;DHT22;54262;44.642;-0.974;2024-01-11T05:38:07;7.70;99.90
67379;DHT22;54262;44.642;-0.974;2024-01-11T05:40:33;7.70;99.90
67379;DHT22;54262;44.642;-0.974;2024-01-11T05:42:58;7.80;99.90
67379;DHT22;54262;44.642;-0.974;2024-01-11T05:45:24;7.70;99.90
67379;DHT22;54262;44.642;-0.974;2024-01-11T05:47:49;7.60;99.90
67379;DHT22;54262;44.642;-0.974;2024-01-11T05:50:15;7.70;99.90
67379;DHT22;54262;44.642;-0.974;2024-01-11T05:52:40;7.70;99.90
67379;DHT22;54262;44.642;-0.974;2024-01-11T05:55:07;7.70;99.90
67379;DHT22;54262;44.642;-0.974;2024-01-11T05:57:32;7.60;99.90
67379;DHT22;54262;44.642;-0.974;2024-01-11T05:59:58;7.60;99.90
67379;DHT22;54262;44.642;-0.974;2024-01-11T06:02:23;7.70;99.90
67379;DHT22;54262;44.642;-0.974;2024-01-11T06:04:49;7.70;99.90
67379;DHT22;54262;44.642;-0.974;2024-01-11T06:07:15;7.60;99.90
67379;DHT22;54262;44.642;-0.974;2024-01-11T06:09:43;7.60;99.90
67379;DHT22;54262;44.642;-0.974;2024-01-11T06:12:08;7.60;99.90
67379;DHT22;54262;44.642;-0.974;2024-01-11T06:14:34;7.60;99.90
67379;DHT22;54262;44.642;-0.974;2024-01-11T06:17:02;7.70;99.90
67379;DHT22;54262;44.642;-0.974;2024-01-11T06:19:27;7.80;99.90
67379;DHT22;54262;44.642;-0.974;2024-01-11T06:21:53;7.80;99.90
67379;DHT22;54262;44.642;-0.974;2024-01-11T06:24:18;7.80;99.90
67379;DHT22;54262;44.642;-0.974;2024-01-11T06:26:44;7.60;99.90
67379;DHT22;54262;44.642;-0.974;2024-01-11T06:29:10;7.60;99.90
67379;DHT22;54262;44.642;-0.974;2024-01-11T06:31:35;7.60;99.90
67379;DHT22;54262;44.642;-0.974;2024-01-11T06:34:01;7.60;99.90
67379;DHT22;54262;44.642;-0.974;2024-01-11T06:36:26;7.70;99.90
67379;DHT22;54262;44.642;-0.974;2024-01-11T06:38:52;7.70;99.90
67379;DHT22;54262;44.642;-0.974;2024-01-11T06:41:17;7.70;99.90
67379;DHT22;54262;44.642;-0.974;2024-01-11T06:43:44;7.70;99.90
67379;DHT22;54262;44.642;-0.974;2024-01-11T06:46:09;7.70;99.90
67379;DHT22;54262;44.642;-0.974;2024-01-11T06:48:36;7.70;99.90
67379;DHT22;54262;44.642;-0.974;2024-01-11T06:51:01;7.70;99.90
67379;DHT22;54262;44.642;-0.974;2024-01-11T06:53:27;7.70;99.90
67379;DHT22;54262;44.642;-0.974;2024-01-11T06:55:52;7.80;99.90
67379;DHT22;54262;44.642;-0.974;2024-01-11T06:58:21;7.80;99.90
67379;DHT22;54262;44.642;-0.974;2024-01-11T07:00:50;7.80;99.90
67379;DHT22;54262;44.642;-0.974;2024-01-11T07:03:16;7.80;99.90
67379;DHT22;54262;44.642;-0.974;2024-01-11T07:05:42;7.80;99.90
67379;DHT22;54262;44.642;-0.974;2024-01-11T07:08:07;7.70;99.90
67379;DHT22;54262;44.642;-0.974;2024-01-11T07:10:36;7.80;99.90
67379;DHT22;54262;44.642;-0.974;2024-01-11T07:13:03;7.80;99.90
67379;DHT22;54262;44.642;-0.974;2024-01-11T07:15:29;7.90;99.90
67379;DHT22;54262;44.642;-0.974;2024-01-11T07:17:56;7.90;99.90
67379;DHT22;54262;44.642;-0.974;2024-01-11T07:20:22;7.90;99.90
67379;DHT22;54262;44.642;-0.974;2024-01-11T07:22:48;7.90;99.90
67379;DHT22;54262;44.642;-0.974;2024-01-11T07:25:13;7.90;99.90
67379;DHT22;54262;44.642;-0.974;2024-01-11T07:27:39;8.10;99.90
67379;DHT22;54262;44.642;-0.974;2024-01-11T07:30:05;8.00;99.90
67379;DHT22;54262;44.642;-0.974;2024-01-11T07:32:31;8.00;99.90
67379;DHT22;54262;44.642;-0.974;2024-01-11T07:34:57;7.90;99.90
67379;DHT22;54262;44.642;-0.974;2024-01-11T07:37:23;8.00;99.90
67379;DHT22;54262;44.642;-0.974;2024-01-11T07:39:51;7.90;99.90
67379;DHT22;54262;44.642;-0.974;2024-01-11T07:42:16;8.00;99.90
67379;DHT22;54262;44.642;-0.974;2024-01-11T07:44:42;7.90;99.90
67379;DHT22;54262;44.642;-0.974;2024-01-11T07:47:07;8.10;99.90
67379;DHT22;54262;44.642;-0.974;2024-01-11T07:49:33;8.20;99.90
67379;DHT22;54262;44.642;-0.974;2024-01-11T07:51:58;8.20;99.90
67379;DHT22;54262;44.642;-0.974;2024-01-11T07:54:24;8.20;99.90
67379;DHT22;54262;44.642;-0.974;2024-01-11T07:56:50;8.10;99.90
67379;DHT22;54262;44.642;-0.974;2024-01-11T07:59:15;7.90;99.90
67379;DHT22;54262;44.642;-0.974;2024-01-11T08:01:41;7.90;99.90
67379;DHT22;54262;44.642;-0.974;2024-01-11T08:04:06;7.80;99.90
67379;DHT22;54262;44.642;-0.974;2024-01-11T08:06:32;7.80;99.90
67379;DHT22;54262;44.642;-0.974;2024-01-11T08:08:58;7.70;99.90
67379;DHT22;54262;44.642;-0.974;2024-01-11T08:11:25;7.70;99.90
67379;DHT22;54262;44.642;-0.974;2024-01-11T08:13:51;7.60;99.90
67379;DHT22;54262;44.642;-0.974;2024-01-11T08:16:18;8.30;99.90
67379;DHT22;54262;44.642;-0.974;2024-01-11T08:18:46;8.60;99.90
67379;DHT22;54262;44.642;-0.974;2024-01-11T08:21:13;8.40;99.90
67379;DHT22;54262;44.642;-0.974;2024-01-11T08:23:40;8.40;99.90
67379;DHT22;54262;44.642;-0.974;2024-01-11T08:26:10;8.50;99.90
67379;DHT22;54262;44.642;-0.974;2024-01-11T08:28:36;8.40;99.90
67379;DHT22;54262;44.642;-0.974;2024-01-11T08:31:01;8.30;99.90
67379;DHT22;54262;44.642;-0.974;2024-01-11T08:33:30;8.30;99.90
67379;DHT22;54262;44.642;-0.974;2024-01-11T08:35:56;8.60;99.90
67379;DHT22;54262;44.642;-0.974;2024-01-11T08:38:21;8.70;99.90
67379;DHT22;54262;44.642;-0.974;2024-01-11T08:40:47;8.70;99.90
67379;DHT22;54262;44.642;-0.974;2024-01-11T08:43:13;8.80;99.90
67379;DHT22;54262;44.642;-0.974;2024-01-11T08:45:39;8.80;99.90
67379;DHT22;54262;44.642;-0.974;2024-01-11T08:48:04;8.70;99.90
67379;DHT22;54262;44.642;-0.974;2024-01-11T08:50:30;8.90;99.90
67379;DHT22;54262;44.642;-0.974;2024-01-11T08:52:55;8.90;99.90
67379;DHT22;54262;44.642;-0.974;2024-01-11T08:55:21;8.90;99.90
67379;DHT22;54262;44.642;-0.974;2024-01-11T08:57:47;8.80;99.90
67379;DHT22;54262;44.642;-0.974;2024-01-11T09:00:12;8.90;99.90
67379;DHT22;54262;44.642;-0.974;2024-01-11T09:02:43;9.00;99.90
67379;DHT22;54262;44.642;-0.974;2024-01-11T09:05:09;9.10;99.90
67379;DHT22;54262;44.642;-0.974;2024-01-11T09:07:34;9.30;99.90
67379;DHT22;54262;44.642;-0.974;2024-01-11T09:10:00;9.20;99.90
67379;DHT22;54262;44.642;-0.974;2024-01-11T09:12:28;9.10;99.90
67379;DHT22;54262;44.642;-0.974;2024-01-11T09:14:53;9.20;99.90
67379;DHT22;54262;44.642;-0.974;2024-01-11T09:17:20;9.10;99.90
67379;DHT22;54262;44.642;-0.974;2024-01-11T09:19:47;9.20;99.90
67379;DHT22;54262;44.642;-0.974;2024-01-11T09:22:13;9.10;99.90
67379;DHT22;54262;44.642;-0.974;2024-01-11T09:24:38;9.00;99.90
67379;DHT22;54262;44.642;-0.974;2024-01-11T09:27:05;8.80;99.90
67379;DHT22;54262;44.642;-0.974;2024-01-11T09:29:30;8.80;99.90
67379;DHT22;54262;44.642;-0.974;2024-01-11T09:31:56;8.90;99.90
67379;DHT22;54262;44.642;-0.974;2024-01-11T09:34:21;8.90;99.90
67379;DHT22;54262;44.642;-0.974;2024-01-11T09:36:47;8.80;99.90
67379;DHT22;54262;44.642;-0.974;2024-01-11T09:39:12;8.80;99.90
67379;DHT22;54262;44.642;-0.974;2024-01-11T09:41:40;8.80;99.90
67379;DHT22;54262;44.642;-0.974;2024-01-11T09:44:12;9.00;99.90
67379;DHT22;54262;44.642;-0.974;2024-01-11T09:46:37;9.10;99.90
67379;DHT22;54262;44.642;-0.974;2024-01-11T09:49:03;9.10;99.90
67379;DHT22;54262;44.642;-0.974;2024-01-11T09:51:29;9.00;99.90
67379;DHT22;54262;44.642;-0.974;2024-01-11T09:53:55;8.80;99.90
67379;DHT22;54262;44.642;-0.974;2024-01-11T09:56:21;8.70;99.90
67379;DHT22;54262;44.642;-0.974;2024-01-11T09:58:48;8.60;99.90
67379;DHT22;54262;44.642;-0.974;2024-01-11T10:01:16;8.60;99.90
67379;DHT22;54262;44.642;-0.974;2024-01-11T10:03:43;8.60;99.90
67379;DHT22;54262;44.642;-0.974;2024-01-11T10:06:09;8.70;99.90
67379;DHT22;54262;44.642;-0.974;2024-01-11T10:08:35;8.80;99.90
67379;DHT22;54262;44.642;-0.974;2024-01-11T10:11:01;8.90;99.90
67379;DHT22;54262;44.642;-0.974;2024-01-11T10:13:30;9.00;99.90
67379;DHT22;54262;44.642;-0.974;2024-01-11T10:16:04;9.10;99.90
67379;DHT22;54262;44.642;-0.974;2024-01-11T10:18:30;9.00;99.90
67379;DHT22;54262;44.642;-0.974;2024-01-11T10:20:57;9.10;99.90
67379;DHT22;54262;44.642;-0.974;2024-01-11T10:23:23;9.10;99.90
67379;DHT22;54262;44.642;-0.974;2024-01-11T10:25:51;10.10;99.90
67379;DHT22;54262;44.642;-0.974;2024-01-11T10:28:17;10.40;99.90
67379;DHT22;54262;44.642;-0.974;2024-01-11T10:30:45;10.10;99.90
67379;DHT22;54262;44.642;-0.974;2024-01-11T10:33:11;9.70;99.90
67379;DHT22;54262;44.642;-0.974;2024-01-11T10:35:36;9.40;99.90
67379;DHT22;54262;44.642;-0.974;2024-01-11T10:38:02;9.40;99.90
67379;DHT22;54262;44.642;-0.974;2024-01-11T10:40:31;9.30;99.90
67379;DHT22;54262;44.642;-0.974;2024-01-11T10:42:58;9.40;99.90
67379;DHT22;54262;44.642;-0.974;2024-01-11T10:45:24;9.40;99.90
67379;DHT22;54262;44.642;-0.974;2024-01-11T10:47:51;9.40;99.90
67379;DHT22;54262;44.642;-0.974;2024-01-11T10:50:18;9.40;99.90
67379;DHT22;54262;44.642;-0.974;2024-01-11T10:53:02;9.30;99.90
67379;DHT22;54262;44.642;-0.974;2024-01-11T10:55:30;9.40;99.90
67379;DHT22;54262;44.642;-0.974;2024-01-11T10:57:56;9.40;99.90
67379;DHT22;54262;44.642;-0.974;2024-01-11T11:00:23;9.40;99.90
67379;DHT22;54262;44.642;-0.974;2024-01-11T11:02:49;9.40;99.90
67379;DHT22;54262;44.642;-0.974;2024-01-11T11:05:16;9.40;99.90
67379;DHT22;54262;44.642;-0.974;2024-01-11T11:07:42;9.50;99.90
67379;DHT22;54262;44.642;-0.974;2024-01-11T11:10:08;9.70;99.90
67379;DHT22;54262;44.642;-0.974;2024-01-11T11:12:34;9.70;99.90
67379;DHT22;54262;44.642;-0.974;2024-01-11T11:15:03;9.70;99.90
67379;DHT22;54262;44.642;-0.974;2024-01-11T11:17:31;9.70;99.90
67379;DHT22;54262;44.642;-0.974;2024-01-11T11:19:59;9.80;99.90
67379;DHT22;54262;44.642;-0.974;2024-01-11T11:22:33;9.90;99.90
67379;DHT22;54262;44.642;-0.974;2024-01-11T11:25:08;10.00;99.90
67379;DHT22;54262;44.642;-0.974;2024-01-11T11:27:35;10.10;99.90
67379;DHT22;54262;44.642;-0.974;2024-01-11T11:30:00;10.30;99.90
67379;DHT22;54262;44.642;-0.974;2024-01-11T11:32:35;10.20;99.90
67379;DHT22;54262;44.642;-0.974;2024-01-11T11:35:01;10.20;99.90
67379;DHT22;54262;44.642;-0.974;2024-01-11T11:37:29;10.30;99.90
67379;DHT22;54262;44.642;-0.974;2024-01-11T11:39:54;10.50;99.90
67379;DHT22;54262;44.642;-0.974;2024-01-11T11:42:22;10.40;99.90
67379;DHT22;54262;44.642;-0.974;2024-01-11T11:44:49;10.40;99.90
67379;DHT22;54262;44.642;-0.974;2024-01-11T11:47:33;10.60;99.90
67379;DHT22;54262;44.642;-0.974;2024-01-11T11:52:28;10.60;99.90
67379;DHT22;54262;44.642;-0.974;2024-01-11T11:54:57;10.50;99.90
67379;DHT22;54262;44.642;-0.974;2024-01-11T11:57:23;10.40;99.90
67379;DHT22;54262;44.642;-0.974;2024-01-11T11:59:49;10.40;99.90
67379;DHT22;54262;44.642;-0.974;2024-01-11T12:02:16;10.30;99.90
67379;DHT22;54262;44.642;-0.974;2024-01-11T12:04:46;10.20;99.90
67379;DHT22;54262;44.642;-0.974;2024-01-11T12:07:11;10.20;99.90
67379;DHT22;54262;44.642;-0.974;2024-01-11T12:09:37;10.20;99.90
67379;DHT22;54262;44.642;-0.974;2024-01-11T12:12:03;10.10;99.90
67379;DHT22;54262;44.642;-0.974;2024-01-11T12:14:29;10.20;99.90
67379;DHT22;54262;44.642;-0.974;2024-01-11T12:17:00;10.10;99.90
67379;DHT22;54262;44.642;-0.974;2024-01-11T12:19:25;10.10;99.90
67379;DHT22;54262;44.642;-0.974;2024-01-11T12:21:51;10.10;99.90
67379;DHT22;54262;44.642;-0.974;2024-01-11T12:24:19;10.30;99.90
67379;DHT22;54262;44.642;-0.974;2024-01-11T12:26:44;10.10;99.90
67379;DHT22;54262;44.642;-0.974;2024-01-11T12:29:11;10.10;99.90
67379;DHT22;54262;44.642;-0.974;2024-01-11T12:31:38;10.00;99.90
67379;DHT22;54262;44.642;-0.974;2024-01-11T12:34:03;10.10;99.90
67379;DHT22;54262;44.642;-0.974;2024-01-11T12:36:30;10.00;99.90
67379;DHT22;54262;44.642;-0.974;2024-01-11T12:38:59;10.10;99.90
67379;DHT22;54262;44.642;-0.974;2024-01-11T12:41:25;10.30;99.90
67379;DHT22;54262;44.642;-0.974;2024-01-11T12:43:50;10.40;99.90
67379;DHT22;54262;44.642;-0.974;2024-01-11T12:46:16;10.40;99.90
67379;DHT22;54262;44.642;-0.974;2024-01-11T12:48:42;10.30;99.90
67379;DHT22;54262;44.642;-0.974;2024-01-11T12:51:08;10.40;99.90
67379;DHT22;54262;44.642;-0.974;2024-01-11T12:53:35;10.30;99.90
67379;DHT22;54262;44.642;-0.974;2024-01-11T12:58:33;10.40;99.90
67379;DHT22;54262;44.642;-0.974;2024-01-11T13:00:59;10.30;99.90
67379;DHT22;54262;44.642;-0.974;2024-01-11T13:03:25;10.20;99.90
67379;DHT22;54262;44.642;-0.974;2024-01-11T13:05:52;10.10;99.90
67379;DHT22;54262;44.642;-0.974;2024-01-11T13:08:18;10.20;99.90
67379;DHT22;54262;44.642;-0.974;2024-01-11T13:10:43;10.20;99.90
67379;DHT22;54262;44.642;-0.974;2024-01-11T13:13:09;10.20;99.90
67379;DHT22;54262;44.642;-0.974;2024-01-11T13:15:35;10.40;99.90
67379;DHT22;54262;44.642;-0.974;2024-01-11T13:18:04;10.20;99.90
67379;DHT22;54262;44.642;-0.974;2024-01-11T13:20:30;10.10;99.90
67379;DHT22;54262;44.642;-0.974;2024-01-11T13:23:11;10.20;99.90
67379;DHT22;54262;44.642;-0.974;2024-01-11T13:25:42;10.20;99.90
67379;DHT22;54262;44.642;-0.974;2024-01-11T13:28:08;10.30;99.90
67379;DHT22;54262;44.642;-0.974;2024-01-11T13:30:34;10.50;99.90
67379;DHT22;54262;44.642;-0.974;2024-01-11T13:33:00;10.60;99.90
67379;DHT22;54262;44.642;-0.974;2024-01-11T13:35:26;10.60;99.90
67379;DHT22;54262;44.642;-0.974;2024-01-11T13:37:51;10.50;99.90
67379;DHT22;54262;44.642;-0.974;2024-01-11T13:40:17;10.40;99.90
67379;DHT22;54262;44.642;-0.974;2024-01-11T13:42:45;10.40;99.90
67379;DHT22;54262;44.642;-0.974;2024-01-11T13:45:10;10.40;99.90
67379;DHT22;54262;44.642;-0.974;2024-01-11T13:47:38;10.40;99.90
67379;DHT22;54262;44.642;-0.974;2024-01-11T13:50:03;10.30;99.90
67379;DHT22;54262;44.642;-0.974;2024-01-11T13:52:29;10.20;99.90
67379;DHT22;54262;44.642;-0.974;2024-01-11T13:54:55;10.40;99.90
67379;DHT22;54262;44.642;-0.974;2024-01-11T13:57:20;10.40;99.90
67379;DHT22;54262;44.642;-0.974;2024-01-11T13:59:46;10.50;99.90
67379;DHT22;54262;44.642;-0.974;2024-01-11T14:02:12;10.50;99.90
67379;DHT22;54262;44.642;-0.974;2024-01-11T14:04:38;10.60;99.90
67379;DHT22;54262;44.642;-0.974;2024-01-11T14:07:05;10.70;99.90
67379;DHT22;54262;44.642;-0.974;2024-01-11T14:09:30;10.60;99.90
67379;DHT22;54262;44.642;-0.974;2024-01-11T14:11:56;10.80;99.90
67379;DHT22;54262;44.642;-0.974;2024-01-11T14:14:21;10.80;99.90
67379;DHT22;54262;44.642;-0.974;2024-01-11T14:16:47;10.70;99.90
67379;DHT22;54262;44.642;-0.974;2024-01-11T14:19:15;10.80;99.90
67379;DHT22;54262;44.642;-0.974;2024-01-11T14:21:40;11.00;99.90
67379;DHT22;54262;44.642;-0.974;2024-01-11T14:24:06;10.90;99.90
67379;DHT22;54262;44.642;-0.974;2024-01-11T14:26:34;10.90;99.90
67379;DHT22;54262;44.642;-0.974;2024-01-11T14:28:59;11.10;99.90
67379;DHT22;54262;44.642;-0.974;2024-01-11T14:31:26;11.20;99.90
67379;DHT22;54262;44.642;-0.974;2024-01-11T14:33:52;11.30;99.90
67379;DHT22;54262;44.642;-0.974;2024-01-11T14:36:17;11.30;99.90
67379;DHT22;54262;44.642;-0.974;2024-01-11T14:38:43;11.30;99.90
67379;DHT22;54262;44.642;-0.974;2024-01-11T14:41:09;11.20;99.90
67379;DHT22;54262;44.642;-0.974;2024-01-11T14:43:37;11.20;99.90
67379;DHT22;54262;44.642;-0.974;2024-01-11T14:46:03;11.00;99.90
67379;DHT22;54262;44.642;-0.974;2024-01-11T14:48:30;11.00;99.90
67379;DHT22;54262;44.642;-0.974;2024-01-11T14:50:58;10.90;99.90
67379;DHT22;54262;44.642;-0.974;2024-01-11T14:53:24;10.80;99.90
67379;DHT22;54262;44.642;-0.974;2024-01-11T14:55:49;10.80;99.90
67379;DHT22;54262;44.642;-0.974;2024-01-11T14:58:15;10.70;99.90
67379;DHT22;54262;44.642;-0.974;2024-01-11T15:00:41;10.60;99.90
67379;DHT22;54262;44.642;-0.974;2024-01-11T15:03:07;10.60;99.90
67379;DHT22;54262;44.642;-0.974;2024-01-11T15:05:32;10.60;99.90
67379;DHT22;54262;44.642;-0.974;2024-01-11T15:07:58;10.60;99.90
67379;DHT22;54262;44.642;-0.974;2024-01-11T15:10:24;10.70;99.90
67379;DHT22;54262;44.642;-0.974;2024-01-11T15:12:50;10.80;99.90
67379;DHT22;54262;44.642;-0.974;2024-01-11T15:15:15;10.70;99.90
67379;DHT22;54262;44.642;-0.974;2024-01-11T15:17:41;10.60;99.90
67379;DHT22;54262;44.642;-0.974;2024-01-11T15:20:09;10.60;99.90
67379;DHT22;54262;44.642;-0.974;2024-01-11T15:22:35;10.60;99.90
67379;DHT22;54262;44.642;-0.974;2024-01-11T15:25:01;10.60;99.90
67379;DHT22;54262;44.642;-0.974;2024-01-11T15:27:28;10.60;99.90
67379;DHT22;54262;44.642;-0.974;2024-01-11T15:29:55;10.50;99.90